Red Feather Lakes, CO (80545)

1:07 PM MDT on September 01, 2015 (GMT -0600)
Robin Path | | Change Station
CLOSE
Current Station
Personal Weather Station
Location: Red Feather Lakes, CO
Elevation: 8202 ft
Nearby Weather Stations

Elev 8202 ft 40.80 °N, 105.56 °W | Updated 8 minutes ago

Clear
Clear
73.5 °F
Feels Like 76 °F
N
4.0
Wind Variable Wind from WSW
Gusts 16.0 mph

Today
High -- | Low -- °F
--% Chance of Precip.
Yesterday
High -- | Low -- °F
Precip. -- in
6:29 AM 7:34 PM
Waning Gibbous, 87% visible
Pressure 29.88 in
Visibility 10.0 miles
Clouds Clear
Heat Index 76 °F
Dew Point 36 °F
Humidity 26%
Rainfall 0.00 in
Snow Depth Not available.
UV 10 out of 12
Pollen 9.80 out of 12
Air Quality Not available.
Flu Activity Not available.
METAR KLAR 011853Z AUTO 31015G28KT 10SM CLR 26/01 A3020 RMK AO2 PK WND 32028/1847 SLP119 T02560006
Pressure 29.88 in
Visibility 10.0 miles
Clouds Clear
Heat Index 76 °F
Dew Point 36 °F
Humidity 26%
Rainfall 0.00 in
Snow Depth Not available.
UV 10 out of 12
Pollen 9.80 out of 12
Air Quality Not available.
Flu Activity Not available.
METAR KLAR 011853Z AUTO 31015G28KT 10SM CLR 26/01 A3020 RMK AO2 PK WND 32028/1847 SLP119 T02560006

10-Day Weather Forecast

×

Almanac

Astronomy

Sep. 01, 2015 Rise Set
Actual Time
Civil Twilight
Nautical Twilight
Astronomical Twilight
Moon
Length of Visible Light
Length of Day
Tomorrow will be .
, % of the Moon is Illuminated

Today's Extremes

State Highs State Lows

Community

WunderPhotos

Upload Photos

1,851,596 photos uploaded!

WunderBlogs® & News

Nearby

Air Quality

  Air Quality AQ Index Pollutant
Not available.

Snow Depth

Station Depth Elevation

Earthquake Activity

City Distance Mag. Time & Date
Minimum magnitude displayed is 2.5.

Coastal Water Temperatures

Place Temperature

Stations

Nearby Weather Stations

Station Location Temp. Windchill Dew Point Humidity Wind Precip. Elev Updated Type